Time;durP1;ratioP1;P1;durP2;ratioP2;P2;SDS_P1;SDS_P2;PMS_P1;PMS_P2;Temp;Humidity;BMP_temperature;BMP_pressure;BME280_temperature;BME280_humidity;BME280_pressure;Samples;Min_cycle;Max_cycle;Signal;HPM_P1;HPM_P2
2022/03/07 00:01:08;;;;;;;;;;;18.70;57.50;;;;;;5013269;28;1969;-69
2022/03/07 00:03:34;;;;;;;;;;;18.60;57.50;;;;;;4995744;28;1086;-69
2022/03/07 00:05:59;;;;;;;;;;;18.60;57.50;;;;;;5013492;28;907;-69
2022/03/07 00:08:25;;;;;;;;;;;18.60;57.50;;;;;;5013376;28;883;-69
2022/03/07 00:10:50;;;;;;;;;;;18.60;57.50;;;;;;4995222;28;1222;-69
2022/03/07 00:13:16;;;;;;;;;;;18.60;57.50;;;;;;5013282;28;780;-69
2022/03/07 00:15:41;;;;;;;;;;;18.60;57.50;;;;;;5013253;28;813;-69
2022/03/07 00:18:07;;;;;;;;;;;18.60;57.50;;;;;;4995718;28;1018;-69
2022/03/07 00:20:32;;;;;;;;;;;18.60;57.60;;;;;;5012682;28;1894;-69
2022/03/07 00:22:58;;;;;;;;;;;18.60;57.60;;;;;;5011959;28;1375;-69
2022/03/07 00:25:23;;;;;;;;;;;18.60;57.60;;;;;;5013057;28;1144;-69
2022/03/07 00:27:49;;;;;;;;;;;18.60;57.60;;;;;;5013252;28;804;-69
2022/03/07 00:30:15;;;;;;;;;;;18.60;57.60;;;;;;5012790;28;1699;-69
2022/03/07 00:32:41;;;;;;;;;;;18.60;57.60;;;;;;5013022;28;844;-69
2022/03/07 00:35:07;;;;;;;;;;;18.60;57.60;;;;;;5013132;28;1195;-69
2022/03/07 00:37:33;;;;;;;;;;;18.60;57.60;;;;;;5012973;28;855;-69
2022/03/07 00:39:58;;;;;;;;;;;18.60;57.70;;;;;;5012515;28;1903;-69
2022/03/07 00:42:23;;;;;;;;;;;18.60;57.70;;;;;;5012836;28;847;-69
2022/03/07 00:44:49;;;;;;;;;;;18.60;57.70;;;;;;5012986;28;828;-69
2022/03/07 00:47:14;;;;;;;;;;;18.60;57.70;;;;;;5013087;28;785;-69
2022/03/07 00:49:40;;;;;;;;;;;18.60;57.70;;;;;;5012709;28;871;-69
2022/03/07 00:52:05;;;;;;;;;;;18.50;57.70;;;;;;5012900;28;1181;-69
2022/03/07 00:54:31;;;;;;;;;;;18.50;57.70;;;;;;5012723;28;1026;-69
2022/03/07 00:56:56;;;;;;;;;;;18.50;57.70;;;;;;4996802;28;1050;-69
2022/03/07 00:59:22;;;;;;;;;;;18.50;57.70;;;;;;5016477;28;1045;-69
2022/03/07 01:01:47;;;;;;;;;;;18.50;58.30;;;;;;5016508;28;1970;-69
2022/03/07 01:04:12;;;;;;;;;;;18.50;57.70;;;;;;5016832;28;779;-69
2022/03/07 01:06:38;;;;;;;;;;;18.50;57.70;;;;;;4998943;28;682;-68
2022/03/07 01:09:03;;;;;;;;;;;18.50;58.30;;;;;;5015846;28;785;-69
2022/03/07 01:11:29;;;;;;;;;;;18.50;57.70;;;;;;5016055;28;1233;-69
2022/03/07 01:13:54;;;;;;;;;;;18.50;57.80;;;;;;5016119;28;1002;-69
2022/03/07 01:16:20;;;;;;;;;;;18.50;57.80;;;;;;5016099;28;903;-68
2022/03/07 01:18:45;;;;;;;;;;;18.50;57.80;;;;;;4998079;28;958;-68
2022/03/07 01:21:11;;;;;;;;;;;18.50;57.80;;;;;;5015861;28;1919;-68
2022/03/07 01:23:37;;;;;;;;;;;18.50;57.80;;;;;;4998395;28;985;-69
2022/03/07 01:26:02;;;;;;;;;;;18.50;57.80;;;;;;5015776;28;903;-69
2022/03/07 01:28:28;;;;;;;;;;;18.50;57.80;;;;;;4998010;28;1314;-68
2022/03/07 01:30:53;;;;;;;;;;;18.50;58.20;;;;;;5015714;28;1303;-69
2022/03/07 01:33:19;;;;;;;;;;;18.50;57.90;;;;;;5015719;28;891;-69
2022/03/07 01:35:44;;;;;;;;;;;18.50;57.80;;;;;;4998217;28;1163;-69
2022/03/07 01:38:09;;;;;;;;;;;18.50;57.80;;;;;;4997981;28;1022;-69
2022/03/07 01:40:35;;;;;;;;;;;18.50;57.90;;;;;;5014912;28;1950;-69
2022/03/07 01:43:00;;;;;;;;;;;18.50;57.90;;;;;;5014435;28;923;-69
2022/03/07 01:45:26;;;;;;;;;;;18.50;57.90;;;;;;5015547;28;907;-69
2022/03/07 01:47:51;;;;;;;;;;;18.50;57.90;;;;;;5015871;28;792;-69
2022/03/07 01:50:18;;;;;;;;;;;18.40;57.80;;;;;;4997991;28;1204;-69
2022/03/07 01:52:44;;;;;;;;;;;18.40;57.80;;;;;;5013794;28;820;-69
2022/03/07 01:55:10;;;;;;;;;;;18.50;57.90;;;;;;5016020;28;796;-69
2022/03/07 01:57:36;;;;;;;;;;;18.40;57.90;;;;;;5015701;28;804;-69
2022/03/07 02:00:04;;;;;;;;;;;18.50;57.90;;;;;;5014079;28;1910;-69
2022/03/07 02:02:29;;;;;;;;;;;18.50;57.90;;;;;;5010952;28;1190;-69
2022/03/07 02:04:55;;;;;;;;;;;18.40;57.90;;;;;;4996346;28;792;-69
2022/03/07 02:07:22;;;;;;;;;;;18.40;57.90;;;;;;4978620;28;855;-69
2022/03/07 02:09:47;;;;;;;;;;;18.40;57.90;;;;;;4962029;28;1414;-70
2022/03/07 02:12:13;;;;;;;;;;;18.40;57.90;;;;;;4995885;28;1188;-70
2022/03/07 02:14:38;;;;;;;;;;;18.40;57.90;;;;;;4995943;28;841;-70
2022/03/07 02:17:04;;;;;;;;;;;18.40;58.00;;;;;;4995847;28;878;-70
2022/03/07 02:19:29;;;;;;;;;;;18.40;58.00;;;;;;4995540;28;1003;-70
2022/03/07 02:22:00;;;;;;;;;;;18.40;58.00;;;;;;5008224;28;1953;-68
2022/03/07 02:24:25;;;;;;;;;;;18.40;58.00;;;;;;4997952;28;875;-70
2022/03/07 02:27:00;;;;;;;;;;;18.40;58.00;;;;;;5015246;28;884;-70
2022/03/07 02:29:26;;;;;;;;;;;18.40;58.00;;;;;;4997394;28;800;-70
2022/03/07 02:31:51;;;;;;;;;;;18.40;58.00;;;;;;4997574;28;1270;-70
2022/03/07 02:34:17;;;;;;;;;;;18.40;58.00;;;;;;4981110;28;1175;-70
2022/03/07 02:36:43;;;;;;;;;;;18.40;58.00;;;;;;5014826;28;1075;-70
2022/03/07 02:39:09;;;;;;;;;;;18.40;57.90;;;;;;5014638;28;1029;-70
2022/03/07 02:41:35;;;;;;;;;;;18.40;57.90;;;;;;5014686;28;1973;-70
2022/03/07 02:44:01;;;;;;;;;;;18.40;57.90;;;;;;4981070;28;1164;-70
2022/03/07 02:46:26;;;;;;;;;;;18.40;57.90;;;;;;5014801;28;899;-69
2022/03/07 02:48:52;;;;;;;;;;;18.40;57.80;;;;;;5014514;28;888;-69
2022/03/07 02:51:17;;;;;;;;;;;18.50;57.90;;;;;;5014428;28;1212;-68
2022/03/07 02:53:42;;;;;;;;;;;18.40;57.80;;;;;;5014523;28;946;-68
2022/03/07 02:56:08;;;;;;;;;;;18.50;57.80;;;;;;5014624;28;958;-68
2022/03/07 02:58:33;;;;;;;;;;;18.50;57.80;;;;;;5014294;28;855;-68
2022/03/07 03:00:59;;;;;;;;;;;18.50;57.80;;;;;;5014229;28;1918;-68
2022/03/07 03:03:24;;;;;;;;;;;18.50;57.80;;;;;;5014500;28;900;-68
2022/03/07 03:05:54;;;;;;;;;;;18.50;57.70;;;;;;4996793;28;896;-68
2022/03/07 03:08:20;;;;;;;;;;;18.50;57.70;;;;;;5014998;28;687;-68
2022/03/07 03:10:46;;;;;;;;;;;18.50;57.70;;;;;;4996655;28;1189;-70
2022/03/07 03:13:11;;;;;;;;;;;18.50;57.70;;;;;;5014409;28;780;-70
2022/03/07 03:15:36;;;;;;;;;;;18.50;57.70;;;;;;4996916;28;808;-69
2022/03/07 03:18:02;;;;;;;;;;;18.50;57.70;;;;;;5014266;28;888;-69
2022/03/07 03:20:27;;;;;;;;;;;18.50;57.70;;;;;;4995572;28;1958;-68
2022/03/07 03:22:53;;;;;;;;;;;18.50;57.70;;;;;;5014115;28;918;-69
2022/03/07 03:25:18;;;;;;;;;;;18.50;57.70;;;;;;5014374;28;1022;-68
2022/03/07 03:27:44;;;;;;;;;;;18.50;57.70;;;;;;4996454;28;720;-68
2022/03/07 03:30:10;;;;;;;;;;;18.50;57.70;;;;;;5013671;28;1200;-69
2022/03/07 03:32:35;;;;;;;;;;;18.50;57.70;;;;;;5014007;28;804;-68
2022/03/07 03:35:01;;;;;;;;;;;18.50;57.70;;;;;;4996186;28;1160;-69
2022/03/07 03:37:26;;;;;;;;;;;18.50;57.70;;;;;;5013927;28;819;-69
2022/03/07 03:39:51;;;;;;;;;;;18.50;57.70;;;;;;5013683;28;1918;-69
2022/03/07 03:42:17;;;;;;;;;;;18.50;57.70;;;;;;4996370;28;1321;-69
2022/03/07 03:44:42;;;;;;;;;;;18.50;57.80;;;;;;4996145;28;907;-69
2022/03/07 03:47:08;;;;;;;;;;;18.50;57.80;;;;;;5013890;28;869;-69
2022/03/07 03:49:33;;;;;;;;;;;18.50;57.80;;;;;;5013374;28;891;-69
2022/03/07 03:51:59;;;;;;;;;;;18.40;57.80;;;;;;4996741;28;1115;-68
2022/03/07 03:54:24;;;;;;;;;;;18.40;57.80;;;;;;4996115;28;877;-70
2022/03/07 03:56:50;;;;;;;;;;;18.40;57.80;;;;;;5013761;28;828;-70
2022/03/07 03:59:15;;;;;;;;;;;18.40;57.80;;;;;;5013222;28;859;-70
2022/03/07 04:01:44;;;;;;;;;;;18.40;57.80;;;;;;4995793;28;1971;-70
2022/03/07 04:04:12;;;;;;;;;;;18.40;57.80;;;;;;5013394;28;867;-69
2022/03/07 04:06:38;;;;;;;;;;;18.40;57.80;;;;;;5012432;28;1029;-70
2022/03/07 04:09:06;;;;;;;;;;;18.40;57.80;;;;;;5013233;28;927;-70
2022/03/07 04:11:31;;;;;;;;;;;18.40;57.90;;;;;;5013247;28;1354;-69
2022/03/07 04:13:57;;;;;;;;;;;18.40;57.90;;;;;;5013337;28;927;-70
2022/03/07 04:16:22;;;;;;;;;;;18.40;57.90;;;;;;5013360;28;974;-69
2022/03/07 04:18:47;;;;;;;;;;;18.40;57.90;;;;;;5012924;28;899;-68
2022/03/07 04:21:14;;;;;;;;;;;18.40;57.90;;;;;;5013080;28;1894;-67
2022/03/07 04:23:39;;;;;;;;;;;18.40;57.90;;;;;;5013466;28;816;-68
2022/03/07 04:26:05;;;;;;;;;;;18.40;57.90;;;;;;5013284;28;808;-68
2022/03/07 04:28:30;;;;;;;;;;;18.40;58.00;;;;;;5013058;28;808;-67
2022/03/07 04:30:56;;;;;;;;;;;18.30;58.00;;;;;;5013119;28;1222;-68
2022/03/07 04:33:21;;;;;;;;;;;18.30;58.00;;;;;;5017013;28;935;-68
2022/03/07 04:35:46;;;;;;;;;;;18.40;58.00;;;;;;5017222;28;1163;-69
2022/03/07 04:38:12;;;;;;;;;;;18.30;58.00;;;;;;5017321;28;892;-69
2022/03/07 04:40:37;;;;;;;;;;;18.40;58.00;;;;;;5016807;28;1918;-69
2022/03/07 04:43:03;;;;;;;;;;;18.40;58.00;;;;;;5016974;28;973;-68
2022/03/07 04:45:28;;;;;;;;;;;18.40;58.00;;;;;;4999668;28;989;-69
2022/03/07 04:47:53;;;;;;;;;;;18.30;58.00;;;;;;5016857;28;978;-69
2022/03/07 04:50:19;;;;;;;;;;;18.40;58.00;;;;;;5016874;28;1227;-70
2022/03/07 04:52:44;;;;;;;;;;;18.30;58.00;;;;;;5017054;28;726;-70
2022/03/07 04:55:10;;;;;;;;;;;18.30;58.00;;;;;;5017004;28;859;-69
2022/03/07 04:57:36;;;;;;;;;;;18.30;58.00;;;;;;5016970;28;1062;-70
2022/03/07 05:00:03;;;;;;;;;;;18.30;58.00;;;;;;5016384;28;1952;-70
2022/03/07 05:02:28;;;;;;;;;;;18.30;58.00;;;;;;4999212;28;1132;-69
2022/03/07 05:04:53;;;;;;;;;;;18.30;58.00;;;;;;5016909;28;890;-69
2022/03/07 05:07:19;;;;;;;;;;;18.30;58.00;;;;;;5016708;28;811;-69
2022/03/07 05:09:45;;;;;;;;;;;18.30;58.00;;;;;;5016504;28;812;-69
2022/03/07 05:12:10;;;;;;;;;;;18.30;58.00;;;;;;5016534;28;1194;-69
2022/03/07 05:14:35;;;;;;;;;;;18.30;58.00;;;;;;5016606;28;788;-68
2022/03/07 05:17:01;;;;;;;;;;;18.30;58.00;;;;;;5016495;28;865;-69
2022/03/07 05:19:26;;;;;;;;;;;18.40;57.90;;;;;;5016397;28;875;-68
2022/03/07 05:21:52;;;;;;;;;;;18.40;57.80;;;;;;5016250;28;2044;-67
2022/03/07 05:24:17;;;;;;;;;;;18.40;57.80;;;;;;5016446;28;851;-68
2022/03/07 05:26:42;;;;;;;;;;;18.50;57.70;;;;;;5016704;28;773;-68
2022/03/07 05:29:08;;;;;;;;;;;18.50;57.60;;;;;;5015931;28;891;-67
2022/03/07 05:31:33;;;;;;;;;;;18.60;57.50;;;;;;5016151;28;1212;-68
2022/03/07 05:33:59;;;;;;;;;;;18.60;57.30;;;;;;5016026;28;1120;-68
2022/03/07 05:36:24;;;;;;;;;;;18.70;57.20;;;;;;5016384;28;883;-68
2022/03/07 05:38:50;;;;;;;;;;;18.70;57.10;;;;;;5015909;28;819;-68
2022/03/07 05:41:16;;;;;;;;;;;18.80;57.00;;;;;;5016126;28;1956;-69
2022/03/07 05:43:41;;;;;;;;;;;18.70;56.90;;;;;;4998284;28;875;-69
2022/03/07 05:46:07;;;;;;;;;;;18.80;56.80;;;;;;5015957;28;1037;-69
2022/03/07 05:48:32;;;;;;;;;;;18.80;56.80;;;;;;5015915;28;896;-69
2022/03/07 05:50:57;;;;;;;;;;;18.80;56.80;;;;;;5015865;28;1228;-69
2022/03/07 05:53:23;;;;;;;;;;;18.90;56.70;;;;;;5015942;28;1057;-69
2022/03/07 05:55:49;;;;;;;;;;;18.90;56.70;;;;;;5015913;28;828;-69
2022/03/07 05:58:14;;;;;;;;;;;18.90;56.60;;;;;;5015749;28;804;-69
2022/03/07 06:00:40;;;;;;;;;;;18.90;56.60;;;;;;5015296;28;1986;-69
2022/03/07 06:03:06;;;;;;;;;;;18.90;56.50;;;;;;5015435;28;1100;-67
2022/03/07 06:05:31;;;;;;;;;;;18.90;56.50;;;;;;5015729;28;809;-69
2022/03/07 06:07:57;;;;;;;;;;;18.90;56.50;;;;;;4998050;28;855;-68
2022/03/07 06:10:22;;;;;;;;;;;18.90;56.40;;;;;;5015298;28;1289;-68
2022/03/07 06:12:47;;;;;;;;;;;18.90;56.40;;;;;;5015535;28;906;-68
2022/03/07 06:15:13;;;;;;;;;;;18.90;56.40;;;;;;5015400;28;801;-68
2022/03/07 06:17:40;;;;;;;;;;;18.90;56.40;;;;;;5015280;28;838;-68
2022/03/07 06:20:06;;;;;;;;;;;18.90;56.40;;;;;;4997244;28;1957;-68
2022/03/07 06:22:31;;;;;;;;;;;18.90;56.40;;;;;;5015209;28;1172;-68
2022/03/07 06:24:57;;;;;;;;;;;19.00;56.40;;;;;;5015231;28;753;-68
2022/03/07 06:27:22;;;;;;;;;;;18.90;56.40;;;;;;5015226;28;691;-68
2022/03/07 06:29:48;;;;;;;;;;;18.90;56.40;;;;;;5014922;28;867;-69
2022/03/07 06:32:13;;;;;;;;;;;18.90;56.40;;;;;;5014956;28;1242;-69
2022/03/07 06:34:39;;;;;;;;;;;19.00;56.40;;;;;;4997383;28;1171;-70
2022/03/07 06:37:04;;;;;;;;;;;18.90;56.40;;;;;;5015100;28;891;-69
2022/03/07 06:39:29;;;;;;;;;;;18.90;56.40;;;;;;5014803;28;823;-70
2022/03/07 06:41:55;;;;;;;;;;;18.90;56.40;;;;;;5014684;28;1898;-68
2022/03/07 06:44:21;;;;;;;;;;;18.90;56.40;;;;;;5014983;28;827;-69
2022/03/07 06:46:46;;;;;;;;;;;18.90;56.40;;;;;;4997341;28;872;-68
2022/03/07 06:49:11;;;;;;;;;;;18.90;56.40;;;;;;5014847;28;737;-68
2022/03/07 06:51:37;;;;;;;;;;;18.90;56.40;;;;;;5014696;28;1290;-68
2022/03/07 06:54:03;;;;;;;;;;;18.90;56.40;;;;;;5013854;28;844;-68
2022/03/07 06:56:28;;;;;;;;;;;18.90;56.40;;;;;;5014796;28;978;-68
2022/03/07 06:58:54;;;;;;;;;;;18.90;56.40;;;;;;5014365;28;848;-68
2022/03/07 07:01:19;;;;;;;;;;;18.90;56.40;;;;;;5014159;28;1953;-68
2022/03/07 07:03:45;;;;;;;;;;;18.90;56.40;;;;;;5014487;28;891;-68
2022/03/07 07:06:10;;;;;;;;;;;18.90;56.40;;;;;;5014472;28;955;-68
2022/03/07 07:08:35;;;;;;;;;;;18.90;56.40;;;;;;5014412;28;1050;-68
2022/03/07 07:11:01;;;;;;;;;;;18.90;56.40;;;;;;5014413;28;1304;-68
2022/03/07 07:13:26;;;;;;;;;;;18.90;56.40;;;;;;5014386;28;947;-66
2022/03/07 07:15:55;;;;;;;;;;;18.90;56.40;;;;;;5003879;28;1826;-67
2022/03/07 07:18:23;;;;;;;;;;;18.90;56.40;;;;;;5013835;28;1005;-69
2022/03/07 07:20:50;;;;;;;;;;;18.90;56.40;;;;;;4996081;28;1898;-67
2022/03/07 07:23:17;;;;;;;;;;;18.90;56.50;;;;;;4996734;28;836;-67
2022/03/07 07:25:42;;;;;;;;;;;18.90;56.50;;;;;;4996063;28;1108;-67
2022/03/07 07:28:08;;;;;;;;;;;18.90;56.50;;;;;;5013992;28;903;-67
2022/03/07 07:30:33;;;;;;;;;;;18.90;56.50;;;;;;5013638;28;1264;-67
2022/03/07 07:32:59;;;;;;;;;;;18.90;56.50;;;;;;5013961;28;1201;-68
2022/03/07 07:35:24;;;;;;;;;;;18.90;56.50;;;;;;5013939;28;1108;-68
2022/03/07 07:37:50;;;;;;;;;;;18.90;56.50;;;;;;5013880;28;866;-67
2022/03/07 07:40:15;;;;;;;;;;;18.90;56.50;;;;;;5013349;28;1903;-68
2022/03/07 07:42:40;;;;;;;;;;;18.90;56.50;;;;;;5014288;28;885;-67
2022/03/07 07:45:08;;;;;;;;;;;18.90;56.50;;;;;;5013706;28;1108;-67
2022/03/07 07:47:33;;;;;;;;;;;18.90;56.50;;;;;;4996186;28;906;-67
2022/03/07 07:49:58;;;;;;;;;;;18.90;56.50;;;;;;5013581;28;1303;-70
2022/03/07 07:52:24;;;;;;;;;;;18.80;56.50;;;;;;5013790;28;708;-67
2022/03/07 07:54:49;;;;;;;;;;;18.90;56.60;;;;;;5013518;28;889;-66
2022/03/07 07:57:15;;;;;;;;;;;18.90;56.60;;;;;;5013663;28;812;-67
2022/03/07 07:59:40;;;;;;;;;;;18.90;56.50;;;;;;5012948;28;777;-70
2022/03/07 08:02:05;;;;;;;;;;;19.00;56.50;;;;;;5013482;28;1907;-70
2022/03/07 08:04:31;;;;;;;;;;;19.10;56.40;;;;;;5012407;28;860;-70
2022/03/07 08:06:56;;;;;;;;;;;19.20;56.20;;;;;;4995833;28;701;-70
2022/03/07 08:09:22;;;;;;;;;;;19.30;56.60;;;;;;5013078;28;858;-71
2022/03/07 08:11:47;;;;;;;;;;;19.50;55.90;;;;;;5013340;28;1311;-70
2022/03/07 08:14:13;;;;;;;;;;;19.60;55.60;;;;;;5013232;28;991;-70
2022/03/07 08:16:38;;;;;;;;;;;19.70;55.40;;;;;;5013338;28;919;-70
2022/03/07 08:19:04;;;;;;;;;;;19.80;55.10;;;;;;4995484;28;1377;-70
2022/03/07 08:21:29;;;;;;;;;;;19.90;54.90;;;;;;4995451;28;1898;-70
2022/03/07 08:23:54;;;;;;;;;;;20.00;54.60;;;;;;5013628;28;887;-70
2022/03/07 08:26:20;;;;;;;;;;;20.10;54.50;;;;;;5013343;28;808;-71
2022/03/07 08:28:46;;;;;;;;;;;20.10;54.20;;;;;;5012798;28;782;-71
2022/03/07 08:31:11;;;;;;;;;;;20.20;54.00;;;;;;5013214;28;1219;-70
2022/03/07 08:33:37;;;;;;;;;;;20.30;53.90;;;;;;4995550;28;1243;-70
2022/03/07 08:36:02;;;;;;;;;;;20.30;53.70;;;;;;5013505;28;1172;-69
2022/03/07 08:38:28;;;;;;;;;;;20.40;53.60;;;;;;5013215;28;847;-69
2022/03/07 08:40:53;;;;;;;;;;;20.40;53.50;;;;;;5012684;28;1981;-69
2022/03/07 08:43:19;;;;;;;;;;;20.50;53.40;;;;;;5013069;28;785;-69
2022/03/07 08:45:44;;;;;;;;;;;20.50;53.30;;;;;;5013112;28;780;-69
2022/03/07 08:48:10;;;;;;;;;;;20.60;53.30;;;;;;5013019;28;831;-69
2022/03/07 08:50:35;;;;;;;;;;;20.60;53.20;;;;;;4994981;28;1333;-69
2022/03/07 08:53:00;;;;;;;;;;;20.60;53.20;;;;;;5013098;28;756;-69
2022/03/07 08:55:26;;;;;;;;;;;20.60;53.20;;;;;;4995457;28;788;-69
2022/03/07 08:57:51;;;;;;;;;;;20.60;53.20;;;;;;5012869;28;1075;-69
2022/03/07 09:00:17;;;;;;;;;;;20.70;53.20;;;;;;5012419;28;1981;-69
2022/03/07 09:02:42;;;;;;;;;;;20.70;53.30;;;;;;5013154;28;1293;-69
2022/03/07 09:05:08;;;;;;;;;;;20.70;53.30;;;;;;5012809;28;946;-69
2022/03/07 09:07:33;;;;;;;;;;;20.70;53.30;;;;;;5013254;28;1014;-69
2022/03/07 09:09:59;;;;;;;;;;;20.70;53.40;;;;;;5012348;28;1222;-69
2022/03/07 09:12:27;;;;;;;;;;;20.60;53.30;;;;;;5012768;28;939;-70
2022/03/07 09:14:59;;;;;;;;;;;20.60;53.30;;;;;;5012785;28;884;-69
2022/03/07 09:17:25;;;;;;;;;;;20.60;53.30;;;;;;4995935;28;1632;-70
2022/03/07 09:19:51;;;;;;;;;;;20.60;53.30;;;;;;5016647;28;1022;-70
2022/03/07 09:22:16;;;;;;;;;;;20.60;53.30;;;;;;5016210;28;1899;-69
2022/03/07 09:24:41;;;;;;;;;;;20.60;53.30;;;;;;4982659;28;1168;-69
2022/03/07 09:27:07;;;;;;;;;;;20.60;53.30;;;;;;4998761;28;825;-70
2022/03/07 09:29:32;;;;;;;;;;;20.60;53.40;;;;;;5016052;28;776;-70
2022/03/07 09:31:58;;;;;;;;;;;20.50;53.30;;;;;;5016139;28;1205;-69
2022/03/07 09:34:23;;;;;;;;;;;20.50;53.40;;;;;;5016168;28;1112;-70
2022/03/07 09:36:49;;;;;;;;;;;20.50;53.50;;;;;;5016181;28;871;-70
2022/03/07 09:39:14;;;;;;;;;;;20.50;53.60;;;;;;5015913;28;883;-70
2022/03/07 09:41:42;;;;;;;;;;;20.50;53.60;;;;;;5011952;22;1960;-67
2022/03/07 09:44:08;;;;;;;;;;;20.50;53.70;;;;;;5035067;28;1771;-67
2022/03/07 09:46:34;;;;;;;;;;;20.40;53.70;;;;;;5035637;28;1288;-66
2022/03/07 09:48:59;;;;;;;;;;;20.40;53.80;;;;;;5017798;28;1100;-67
2022/03/07 09:51:24;;;;;;;;;;;20.40;53.80;;;;;;5025710;28;1261;-67
2022/03/07 09:53:50;;;;;;;;;;;20.30;53.90;;;;;;5035495;28;883;-66
2022/03/07 09:56:15;;;;;;;;;;;20.40;54.00;;;;;;5017501;28;901;-67
2022/03/07 09:58:41;;;;;;;;;;;20.30;54.00;;;;;;5035158;28;1269;-68
2022/03/07 10:01:10;;;;;;;;;;;20.30;54.00;;;;;;5034854;28;1961;-68
2022/03/07 10:03:36;;;;;;;;;;;20.30;54.10;;;;;;5033035;28;1364;-65
2022/03/07 10:06:01;;;;;;;;;;;20.30;54.10;;;;;;5041759;28;992;-67
2022/03/07 10:08:27;;;;;;;;;;;20.20;54.10;;;;;;5024026;28;1181;-66
2022/03/07 10:10:53;;;;;;;;;;;20.20;54.20;;;;;;5015008;28;1322;-68
2022/03/07 10:13:19;;;;;;;;;;;20.20;54.30;;;;;;5014399;28;993;-66
2022/03/07 10:15:53;;;;;;;;;;;20.20;54.30;;;;;;5014188;28;1030;-67
2022/03/07 10:18:18;;;;;;;;;;;20.20;54.30;;;;;;5015147;28;1017;-67
2022/03/07 10:20:47;;;;;;;;;;;20.20;54.30;;;;;;5025706;28;1898;-66
2022/03/07 10:23:12;;;;;;;;;;;20.20;54.40;;;;;;5034986;28;860;-67
2022/03/07 10:25:42;;;;;;;;;;;20.10;54.40;;;;;;5035289;28;699;-66
2022/03/07 10:28:08;;;;;;;;;;;20.10;54.50;;;;;;5034968;28;795;-66
2022/03/07 10:30:35;;;;;;;;;;;20.10;54.50;;;;;;5016088;28;1218;-67
2022/03/07 10:33:03;;;;;;;;;;;20.10;54.60;;;;;;5034772;28;902;-67
2022/03/07 10:35:30;;;;;;;;;;;20.10;54.60;;;;;;5017452;28;1176;-67
2022/03/07 10:37:57;;;;;;;;;;;20.00;54.60;;;;;;5032905;28;1005;-66
2022/03/07 10:40:22;;;;;;;;;;;20.00;54.60;;;;;;5032318;28;1902;-67
2022/03/07 10:42:48;;;;;;;;;;;20.00;54.70;;;;;;5033732;28;899;-66
2022/03/07 10:45:13;;;;;;;;;;;20.00;54.70;;;;;;5017227;28;800;-66
2022/03/07 10:47:39;;;;;;;;;;;20.00;54.80;;;;;;5035366;28;776;-67
2022/03/07 10:50:05;;;;;;;;;;;19.90;54.80;;;;;;5034528;28;807;-67
2022/03/07 10:52:34;;;;;;;;;;;19.90;54.90;;;;;;5034996;28;1229;-67
2022/03/07 10:55:00;;;;;;;;;;;19.90;54.90;;;;;;5016826;28;1092;-67
2022/03/07 10:57:25;;;;;;;;;;;19.90;54.80;;;;;;5034531;28;847;-66
2022/03/07 10:59:51;;;;;;;;;;;20.00;54.70;;;;;;5034342;28;851;-67
2022/03/07 11:02:17;;;;;;;;;;;20.00;54.70;;;;;;5041348;28;1910;-67
2022/03/07 11:04:43;;;;;;;;;;;20.00;54.60;;;;;;5027803;28;931;-64
2022/03/07 11:07:09;;;;;;;;;;;20.10;54.50;;;;;;5020882;28;1240;-66
2022/03/07 11:09:37;;;;;;;;;;;20.10;54.40;;;;;;5006185;28;1378;-65
2022/03/07 11:12:03;;;;;;;;;;;20.10;54.30;;;;;;5005484;28;1358;-66
2022/03/07 11:14:28;;;;;;;;;;;20.20;54.30;;;;;;5021001;28;1216;-66
2022/03/07 11:16:56;;;;;;;;;;;20.20;54.20;;;;;;5006402;28;1141;-66
2022/03/07 11:19:25;;;;;;;;;;;20.20;54.10;;;;;;5003789;28;1612;-66
2022/03/07 11:21:51;;;;;;;;;;;20.20;54.00;;;;;;5025995;28;1958;-70
2022/03/07 11:24:18;;;;;;;;;;;20.20;54.00;;;;;;5019865;28;1308;-67
2022/03/07 11:26:43;;;;;;;;;;;20.20;53.90;;;;;;5001852;28;1166;-67
2022/03/07 11:29:09;;;;;;;;;;;20.20;53.80;;;;;;5014053;28;878;-66
2022/03/07 11:31:34;;;;;;;;;;;20.30;53.80;;;;;;4996478;28;1291;-66
2022/03/07 11:34:04;;;;;;;;;;;20.20;53.80;;;;;;5014484;28;1415;-65
2022/03/07 11:36:30;;;;;;;;;;;20.30;53.90;;;;;;5036255;28;878;-66
2022/03/07 11:38:56;;;;;;;;;;;20.20;53.80;;;;;;5053974;28;834;-66
2022/03/07 11:41:22;;;;;;;;;;;20.30;53.90;;;;;;5052841;28;1898;-66
2022/03/07 11:43:52;;;;;;;;;;;20.20;53.80;;;;;;5035898;28;1099;-67
2022/03/07 11:46:21;;;;;;;;;;;20.20;53.80;;;;;;5053508;28;1091;-67
2022/03/07 11:48:47;;;;;;;;;;;20.20;53.80;;;;;;5053227;28;772;-68
2022/03/07 11:51:19;;;;;;;;;;;20.20;53.80;;;;;;5024096;28;1367;-67
2022/03/07 11:53:45;;;;;;;;;;;20.20;53.80;;;;;;5005880;28;1348;-67
2022/03/07 11:56:20;;;;;;;;;;;20.20;54.00;;;;;;5004462;28;1181;-66
2022/03/07 11:58:49;;;;;;;;;;;20.20;53.90;;;;;;5021197;28;1244;-67
2022/03/07 12:01:14;;;;;;;;;;;20.20;54.00;;;;;;5023048;28;1965;-65
2022/03/07 12:03:40;;;;;;;;;;;20.10;53.90;;;;;;5021624;28;1248;-67
2022/03/07 12:06:06;;;;;;;;;;;20.20;54.00;;;;;;5005609;28;1336;-68
2022/03/07 12:08:41;;;;;;;;;;;20.10;53.90;;;;;;5000262;28;1167;-68
2022/03/07 12:11:09;;;;;;;;;;;20.10;53.90;;;;;;4979072;28;1357;-68
2022/03/07 12:13:43;;;;;;;;;;;20.10;53.90;;;;;;5012560;28;827;-68
2022/03/07 12:16:09;;;;;;;;;;;20.10;54.00;;;;;;4995915;28;1274;-68
2022/03/07 12:18:36;;;;;;;;;;;20.10;53.90;;;;;;4995645;28;843;-68
2022/03/07 12:21:02;;;;;;;;;;;20.10;53.90;;;;;;5018686;28;1898;-69
2022/03/07 12:23:28;;;;;;;;;;;20.10;53.90;;;;;;5031900;28;1147;-69
2022/03/07 12:26:03;;;;;;;;;;;20.10;54.00;;;;;;5023537;28;1078;-70
2022/03/07 12:28:29;;;;;;;;;;;20.10;53.90;;;;;;5023026;28;1209;-69
2022/03/07 12:30:55;;;;;;;;;;;20.10;54.00;;;;;;5019193;28;1854;-68
2022/03/07 12:33:21;;;;;;;;;;;20.00;53.90;;;;;;5021582;28;1284;-68
2022/03/07 12:35:46;;;;;;;;;;;20.10;53.90;;;;;;5023677;28;1197;-69
2022/03/07 12:38:11;;;;;;;;;;;20.10;54.00;;;;;;5022863;28;1956;-69
2022/03/07 12:40:37;;;;;;;;;;;20.10;53.90;;;;;;5023542;28;1890;-69
2022/03/07 12:43:02;;;;;;;;;;;20.10;53.90;;;;;;5014850;28;1152;-69
2022/03/07 12:45:28;;;;;;;;;;;20.10;53.80;;;;;;5031066;28;1176;-70
2022/03/07 12:47:53;;;;;;;;;;;20.10;53.70;;;;;;5031435;28;1057;-69
2022/03/07 12:50:22;;;;;;;;;;;20.10;53.70;;;;;;5031129;28;1327;-69
2022/03/07 12:52:49;;;;;;;;;;;20.20;53.70;;;;;;5016389;28;978;-68
2022/03/07 12:55:15;;;;;;;;;;;20.20;54.30;;;;;;5036789;28;925;-69
2022/03/07 12:57:41;;;;;;;;;;;20.20;53.60;;;;;;5018867;28;1038;-69
2022/03/07 13:00:07;;;;;;;;;;;20.20;53.60;;;;;;5018893;28;1965;-70
2022/03/07 13:02:36;;;;;;;;;;;20.20;53.60;;;;;;5032858;28;1283;-69
2022/03/07 13:05:03;;;;;;;;;;;20.20;53.60;;;;;;5038858;28;1371;-69
2022/03/07 13:07:28;;;;;;;;;;;20.20;53.50;;;;;;5056093;28;819;-69
2022/03/07 13:09:54;;;;;;;;;;;20.20;53.50;;;;;;5056113;28;1202;-70
2022/03/07 13:12:20;;;;;;;;;;;20.20;53.50;;;;;;5056013;28;1203;-69
2022/03/07 13:14:45;;;;;;;;;;;20.20;53.50;;;;;;5056452;28;1057;-69
2022/03/07 13:17:12;;;;;;;;;;;20.20;53.50;;;;;;5038318;28;753;-68
2022/03/07 13:19:38;;;;;;;;;;;20.20;53.60;;;;;;5038342;28;816;-69
2022/03/07 13:22:07;;;;;;;;;;;20.20;53.60;;;;;;5024273;28;1956;-69
2022/03/07 13:24:32;;;;;;;;;;;20.20;53.60;;;;;;5036080;28;931;-69
2022/03/07 13:27:01;;;;;;;;;;;20.20;53.60;;;;;;5018479;28;823;-69
2022/03/07 13:29:27;;;;;;;;;;;20.20;53.60;;;;;;5035953;28;883;-69
2022/03/07 13:32:00;;;;;;;;;;;20.20;53.70;;;;;;5018398;28;1195;-69
2022/03/07 13:34:25;;;;;;;;;;;20.10;53.70;;;;;;5022224;28;1108;-69
2022/03/07 13:36:57;;;;;;;;;;;20.10;53.70;;;;;;5035113;28;2226;-69
2022/03/07 13:39:23;;;;;;;;;;;20.10;53.80;;;;;;5034424;28;2185;-69
2022/03/07 13:41:52;;;;;;;;;;;20.10;53.80;;;;;;5035362;28;1898;-69
2022/03/07 13:44:18;;;;;;;;;;;20.10;53.80;;;;;;5035609;28;1101;-69
2022/03/07 13:46:53;;;;;;;;;;;20.10;53.80;;;;;;5035693;28;1236;-69
2022/03/07 13:49:19;;;;;;;;;;;20.00;53.80;;;;;;5018032;28;1045;-69
2022/03/07 13:51:44;;;;;;;;;;;20.00;53.70;;;;;;5034616;28;2271;-69
2022/03/07 13:54:09;;;;;;;;;;;20.00;53.80;;;;;;5035454;28;1167;-70
2022/03/07 13:56:36;;;;;;;;;;;20.00;53.80;;;;;;5035197;28;1241;-70
2022/03/07 13:59:13;;;;;;;;;;;20.00;53.80;;;;;;5035151;28;1202;-69
2022/03/07 14:01:39;;;;;;;;;;;20.00;53.90;;;;;;5037212;28;2395;-69
2022/03/07 14:04:14;;;;;;;;;;;19.90;53.80;;;;;;5030941;28;1592;-69
2022/03/07 14:06:41;;;;;;;;;;;19.90;53.90;;;;;;5027065;28;1588;-68
2022/03/07 14:09:13;;;;;;;;;;;19.90;53.90;;;;;;5006673;28;1433;-69
2022/03/07 14:11:39;;;;;;;;;;;19.90;53.90;;;;;;5028312;28;1515;-69
2022/03/07 14:14:04;;;;;;;;;;;19.90;54.00;;;;;;5023622;28;1355;-68
2022/03/07 14:16:33;;;;;;;;;;;19.90;54.00;;;;;;5016501;28;2161;-69
2022/03/07 14:18:59;;;;;;;;;;;19.90;54.10;;;;;;5031018;28;1166;-69
2022/03/07 14:21:26;;;;;;;;;;;19.90;54.10;;;;;;5034151;28;1932;-68
2022/03/07 14:23:52;;;;;;;;;;;19.80;54.10;;;;;;5035081;28;1096;-68
2022/03/07 14:26:17;;;;;;;;;;;19.80;54.10;;;;;;5035252;28;1270;-69
2022/03/07 14:28:44;;;;;;;;;;;19.90;54.20;;;;;;5034563;28;1184;-69